Time;durP1;ratioP1;P1;durP2;ratioP2;P2;SDS_P1;SDS_P2;PMS_P1;PMS_P2;Temp;Humidity;BMP_temperature;BMP_pressure;BME280_temperature;BME280_humidity;BME280_pressure;Samples;Min_cycle;Max_cycle;Signal;HPM_P1;HPM_P2
2021/06/07 00:01:39;;;;;;;17.17;15.52;;;20.70;92.80;;;;;;5059236;28;20062;-62
2021/06/07 00:04:06;;;;;;;15.52;13.95;;;20.70;94.70;;;;;;5074448;28;20044;-59
2021/06/07 00:06:32;;;;;;;16.13;14.45;;;20.70;94.10;;;;;;5059013;28;20399;-59
2021/06/07 00:08:58;;;;;;;15.85;14.20;;;20.70;94.40;;;;;;5070425;28;20493;-60
2021/06/07 00:11:24;;;;;;;15.77;14.27;;;20.70;94.40;;;;;;5056588;28;20041;-59
2021/06/07 00:13:51;;;;;;;16.20;14.65;;;20.70;94.40;;;;;;5073737;28;20071;-60
2021/06/07 00:16:17;;;;;;;17.80;16.05;;;20.70;93.70;;;;;;5059046;28;20546;-60
2021/06/07 00:18:43;;;;;;;19.90;17.77;;;20.70;94.40;;;;;;5065631;28;20116;-60
2021/06/07 00:21:20;;;;;;;17.48;15.88;;;20.70;94.80;;;;;;5058755;28;20376;-60
2021/06/07 00:23:47;;;;;;;18.23;16.40;;;20.70;94.90;;;;;;5073102;28;20040;-60
2021/06/07 00:26:13;;;;;;;18.70;16.77;;;20.60;94.40;;;;;;5066971;28;20498;-61
2021/06/07 00:28:38;;;;;;;19.35;17.40;;;20.70;94.30;;;;;;5039342;28;20052;-60
2021/06/07 00:31:07;;;;;;;18.75;16.95;;;20.70;94.60;;;;;;5063725;28;20127;-61
2021/06/07 00:33:33;;;;;;;19.88;17.77;;;20.70;94.50;;;;;;5079311;28;20037;-60
2021/06/07 00:36:00;;;;;;;20.60;18.42;;;20.70;93.90;;;;;;5070126;28;20469;-61
2021/06/07 00:38:26;;;;;;;20.88;18.75;;;20.70;93.90;;;;;;5063749;28;20577;-60
2021/06/07 00:40:52;;;;;;;20.17;18.20;;;20.70;94.10;;;;;;5079425;28;20042;-60
2021/06/07 00:43:17;;;;;;;20.25;18.08;;;20.70;94.00;;;;;;5069483;28;20090;-61
2021/06/07 00:45:43;;;;;;;21.50;19.48;;;20.70;93.90;;;;;;5069576;28;20028;-61
2021/06/07 00:48:10;;;;;;;22.38;19.90;;;20.70;94.50;;;;;;5061181;28;20060;-61
2021/06/07 00:50:39;;;;;;;21.70;19.65;;;20.70;94.70;;;;;;5078958;28;20670;-61
2021/06/07 00:53:07;;;;;;;20.48;18.40;;;20.70;94.50;;;;;;5078090;28;20032;-60
2021/06/07 00:55:54;;;;;;;21.55;19.45;;;20.70;93.90;;;;;;5066776;28;20063;-61
2021/06/07 00:58:27;;;;;;;21.73;19.63;;;20.70;94.50;;;;;;5067114;28;20119;-60
2021/06/07 01:00:54;;;;;;;21.80;19.67;;;20.70;94.30;;;;;;5080643;28;20048;-60
2021/06/07 01:03:21;;;;;;;21.85;19.23;;;20.70;93.80;;;;;;5069525;28;20951;-60
2021/06/07 01:05:48;;;;;;;21.40;18.17;;;20.70;93.80;;;;;;5083524;28;20124;-61
2021/06/07 01:08:36;;;;;;;19.73;17.70;;;20.70;93.70;;;;;;5047395;28;20050;-60
2021/06/07 01:11:02;;;;;;;21.73;19.52;;;20.70;93.10;;;;;;5041689;28;20044;-60
2021/06/07 01:13:28;;;;;;;20.80;18.70;;;20.70;93.70;;;;;;5063403;28;20068;-60
2021/06/07 01:15:56;;;;;;;19.08;17.00;;;20.70;93.70;;;;;;5055831;28;20511;-61
2021/06/07 01:18:23;;;;;;;20.63;17.10;;;20.70;93.70;;;;;;5056271;28;20117;-61
2021/06/07 01:20:54;;;;;;;20.48;18.27;;;20.80;93.80;;;;;;5070089;28;20041;-61
2021/06/07 01:23:20;;;;;;;18.38;16.45;;;20.80;93.60;;;;;;5057568;28;20524;-61
2021/06/07 01:25:47;;;;;;;19.70;17.63;;;20.80;93.40;;;;;;5064629;28;20382;-60
2021/06/07 01:28:16;;;;;;;18.02;16.17;;;20.80;93.70;;;;;;5065738;28;20036;-61
2021/06/07 01:30:45;;;;;;;17.77;15.95;;;20.80;93.60;;;;;;5058408;28;20049;-60
2021/06/07 01:33:12;;;;;;;17.52;15.73;;;20.80;93.20;;;;;;5062826;28;20036;-60
2021/06/07 01:35:39;;;;;;;18.60;16.63;;;20.80;92.70;;;;;;5064050;28;20029;-61
2021/06/07 01:38:06;;;;;;;18.05;16.00;;;20.80;93.40;;;;;;5059066;28;20049;-61
2021/06/07 01:40:42;;;;;;;18.05;16.02;;;20.80;92.70;;;;;;5066011;28;20083;-60
2021/06/07 01:43:08;;;;;;;17.90;15.90;;;20.80;92.50;;;;;;5053768;28;20116;-61
2021/06/07 01:45:36;;;;;;;19.73;16.70;;;20.80;93.00;;;;;;5063461;28;20096;-61
2021/06/07 01:48:05;;;;;;;18.50;16.63;;;20.70;93.30;;;;;;5067817;28;20086;-60
2021/06/07 01:50:31;;;;;;;18.58;16.77;;;20.80;93.50;;;;;;5071183;28;20035;-60
2021/06/07 01:52:57;;;;;;;19.05;16.88;;;20.80;93.50;;;;;;5067800;28;20481;-60
2021/06/07 01:55:43;;;;;;;19.38;17.40;;;20.80;93.70;;;;;;5060272;28;20033;-61
2021/06/07 01:58:10;;;;;;;18.73;16.83;;;20.80;94.30;;;;;;5036995;28;20041;-61
2021/06/07 02:00:42;;;;;;;17.67;15.98;;;20.80;93.60;;;;;;5058769;28;20097;-61
2021/06/07 02:03:08;;;;;;;19.50;17.40;;;20.70;92.90;;;;;;5060055;28;20148;-61
2021/06/07 02:05:37;;;;;;;18.23;16.52;;;20.80;93.40;;;;;;5073160;28;20044;-61
2021/06/07 02:08:06;;;;;;;18.48;16.67;;;20.80;93.30;;;;;;5072883;28;20056;-60
2021/06/07 02:10:35;;;;;;;19.65;17.75;;;20.80;93.30;;;;;;5018125;28;20376;-60
2021/06/07 02:13:00;;;;;;;18.17;16.42;;;20.80;93.30;;;;;;5072405;28;20477;-60
2021/06/07 02:15:26;;;;;;;18.50;16.80;;;20.80;93.00;;;;;;5058851;28;22368;-59
2021/06/07 02:17:52;;;;;;;19.35;17.42;;;20.80;93.10;;;;;;5083450;28;20036;-61
2021/06/07 02:20:21;;;;;;;19.75;17.70;;;20.80;93.00;;;;;;5083575;28;20062;-60
2021/06/07 02:22:47;;;;;;;21.55;19.35;;;20.80;93.40;;;;;;5072421;28;20650;-60
2021/06/07 02:25:20;;;;;;;19.10;17.08;;;20.70;93.40;;;;;;5079455;28;20047;-60
2021/06/07 02:27:46;;;;;;;20.67;18.63;;;20.80;93.70;;;;;;5059486;28;20060;-60
2021/06/07 02:30:17;;;;;;;18.55;16.48;;;20.80;93.10;;;;;;5073281;28;20078;-60
2021/06/07 02:32:43;;;;;;;21.75;19.58;;;20.80;93.50;;;;;;5054972;28;20101;-60
2021/06/07 02:35:11;;;;;;;19.65;17.52;;;20.80;93.50;;;;;;5064173;28;20036;-60
2021/06/07 02:37:37;;;;;;;21.50;19.35;;;20.70;93.70;;;;;;5056702;28;20039;-59
2021/06/07 02:40:05;;;;;;;21.27;19.13;;;20.70;93.60;;;;;;5066119;28;20051;-61
2021/06/07 02:42:31;;;;;;;20.88;18.67;;;20.80;93.60;;;;;;5071272;28;20052;-61
2021/06/07 02:44:56;;;;;;;21.63;19.42;;;20.80;93.50;;;;;;5066899;28;20051;-60
2021/06/07 02:47:22;;;;;;;21.40;19.10;;;20.80;93.60;;;;;;5058284;28;20040;-60
2021/06/07 02:49:48;;;;;;;22.67;18.73;;;20.70;93.40;;;;;;5064738;28;20040;-61
2021/06/07 02:52:13;;;;;;;21.35;18.63;;;20.70;93.50;;;;;;5065112;28;20047;-60
2021/06/07 02:54:39;;;;;;;21.50;19.25;;;20.80;93.40;;;;;;5059871;28;20063;-60
2021/06/07 02:57:05;;;;;;;24.40;18.50;;;20.70;93.50;;;;;;5063388;28;22346;-60
2021/06/07 02:59:31;;;;;;;20.35;17.75;;;20.70;93.00;;;;;;5061367;28;20045;-60
2021/06/07 03:02:09;;;;;;;21.05;18.95;;;20.70;92.80;;;;;;5058592;28;20060;-60
2021/06/07 03:04:34;;;;;;;20.55;18.50;;;20.80;93.90;;;;;;5063723;28;20032;-61
2021/06/07 03:07:00;;;;;;;19.23;17.23;;;20.80;93.50;;;;;;5067985;28;20041;-59
2021/06/07 03:09:26;;;;;;;19.42;17.50;;;20.70;92.60;;;;;;5050317;28;20040;-60
2021/06/07 03:11:51;;;;;;;19.30;17.30;;;20.80;92.70;;;;;;5073452;28;20047;-61
2021/06/07 03:14:17;;;;;;;20.75;18.65;;;20.70;92.80;;;;;;5057243;28;20381;-61
2021/06/07 03:16:43;;;;;;;18.25;16.35;;;20.70;93.00;;;;;;5070769;28;20583;-60
2021/06/07 03:19:08;;;;;;;18.58;16.67;;;20.70;92.90;;;;;;5060238;28;20044;-60
2021/06/07 03:21:34;;;;;;;16.50;15.05;;;20.70;92.30;;;;;;5052843;28;20071;-61
2021/06/07 03:24:00;;;;;;;17.02;15.25;;;20.80;92.00;;;;;;5013915;28;20043;-60
2021/06/07 03:26:26;;;;;;;16.90;15.23;;;20.80;92.00;;;;;;5047995;28;20040;-60
2021/06/07 03:28:51;;;;;;;17.48;15.05;;;20.70;91.90;;;;;;5038116;28;20044;-60
2021/06/07 03:31:17;;;;;;;17.58;15.70;;;20.70;91.30;;;;;;4996361;28;20542;-60
2021/06/07 03:33:43;;;;;;;16.75;15.00;;;20.70;92.10;;;;;;5032499;28;20041;-60
2021/06/07 03:36:09;;;;;;;18.27;15.20;;;20.70;91.80;;;;;;5053838;28;20482;-61
2021/06/07 03:38:34;;;;;;;16.10;14.32;;;20.70;91.80;;;;;;5023617;28;20128;-61
2021/06/07 03:41:01;;;;;;;15.60;14.00;;;20.70;91.60;;;;;;5061890;28;20183;-60
2021/06/07 03:43:33;;;;;;;17.15;15.27;;;20.70;92.10;;;;;;5050035;28;20036;-60
2021/06/07 03:45:59;;;;;;;15.52;13.95;;;20.70;92.00;;;;;;5059665;28;20043;-60
2021/06/07 03:48:25;;;;;;;16.08;14.60;;;20.70;91.90;;;;;;5059917;28;20194;-60
2021/06/07 03:50:51;;;;;;;16.27;14.63;;;20.70;92.20;;;;;;5056386;28;20040;-60
2021/06/07 03:53:17;;;;;;;16.10;14.43;;;20.70;92.30;;;;;;5052280;28;20093;-60
2021/06/07 03:55:43;;;;;;;18.42;14.60;;;20.60;91.80;;;;;;5058040;28;20037;-60
2021/06/07 03:58:10;;;;;;;14.98;13.32;;;20.70;92.00;;;;;;5059931;28;20036;-60
2021/06/07 04:00:38;;;;;;;13.32;11.93;;;20.60;91.30;;;;;;5036265;28;20052;-60
2021/06/07 04:03:05;;;;;;;13.82;12.52;;;20.70;91.40;;;;;;5044673;28;20497;-60
2021/06/07 04:05:32;;;;;;;13.02;11.73;;;20.70;91.40;;;;;;5017752;28;20076;-60
2021/06/07 04:07:57;;;;;;;12.55;11.45;;;20.70;91.10;;;;;;5059449;28;20605;-59
2021/06/07 04:10:25;;;;;;;14.35;12.68;;;20.70;91.00;;;;;;5051835;28;20044;-60
2021/06/07 04:12:51;;;;;;;13.35;11.98;;;20.80;91.00;;;;;;5055192;28;20037;-60
2021/06/07 04:15:21;;;;;;;15.43;12.38;;;20.80;90.60;;;;;;5055095;28;20041;-60
2021/06/07 04:17:48;;;;;;;12.68;11.35;;;20.80;90.70;;;;;;5039367;28;20041;-60
2021/06/07 04:20:16;;;;;;;12.00;10.85;;;20.80;90.40;;;;;;5041958;28;20056;-61
2021/06/07 04:22:43;;;;;;;11.75;10.40;;;20.80;90.60;;;;;;5077729;28;20048;-61
2021/06/07 04:25:10;;;;;;;11.80;10.55;;;20.80;90.00;;;;;;5063812;28;20040;-61
2021/06/07 04:27:37;;;;;;;13.23;11.88;;;20.70;89.70;;;;;;5062432;28;20036;-60
2021/06/07 04:30:06;;;;;;;13.10;11.80;;;20.80;89.00;;;;;;5060944;28;20385;-61
2021/06/07 04:32:35;;;;;;;12.80;11.63;;;20.80;90.00;;;;;;5063612;28;20078;-60
2021/06/07 04:35:02;;;;;;;11.77;10.77;;;20.90;90.50;;;;;;5070305;28;20210;-61
2021/06/07 04:37:28;;;;;;;11.60;10.50;;;20.90;90.10;;;;;;5077008;28;20047;-61
2021/06/07 04:39:54;;;;;;;11.98;10.25;;;20.90;89.40;;;;;;5066521;28;20052;-61
2021/06/07 04:42:20;;;;;;;11.00;10.00;;;20.90;88.40;;;;;;5059958;28;20090;-61
2021/06/07 04:44:45;;;;;;;11.63;10.48;;;20.90;89.50;;;;;;5076208;28;20041;-61
2021/06/07 04:47:11;;;;;;;10.40;9.18;;;20.90;88.30;;;;;;5057882;28;20056;-61
2021/06/07 04:49:37;;;;;;;11.80;8.98;;;20.90;87.90;;;;;;5069680;28;20040;-61
2021/06/07 04:52:03;;;;;;;10.52;9.45;;;20.90;87.60;;;;;;5077326;28;20032;-60
2021/06/07 04:54:29;;;;;;;10.68;9.65;;;21.00;87.70;;;;;;5077760;28;20055;-61
2021/06/07 04:56:54;;;;;;;10.15;9.20;;;21.00;86.80;;;;;;5053690;28;20408;-61
2021/06/07 04:59:20;;;;;;;12.10;9.50;;;21.10;88.00;;;;;;5076383;28;20039;-61
2021/06/07 05:01:45;;;;;;;15.40;10.07;;;21.10;87.30;;;;;;5070542;28;20040;-61
2021/06/07 05:04:11;;;;;;;11.48;9.40;;;21.10;87.20;;;;;;5049721;28;20045;-61
2021/06/07 05:06:37;;;;;;;11.30;9.73;;;21.20;87.30;;;;;;5045676;28;20028;-61
2021/06/07 05:09:03;;;;;;;11.23;8.95;;;21.10;87.00;;;;;;5081014;28;20046;-61
2021/06/07 05:11:29;;;;;;;9.65;8.70;;;21.20;86.70;;;;;;5055637;28;20044;-60
2021/06/07 05:13:54;;;;;;;10.68;8.50;;;21.20;86.80;;;;;;5079641;28;20098;-61
2021/06/07 05:16:20;;;;;;;11.48;9.15;;;21.20;86.10;;;;;;5058303;28;20036;-61
2021/06/07 05:18:46;;;;;;;11.20;9.15;;;21.30;86.70;;;;;;5051432;28;20039;-61
2021/06/07 05:21:13;;;;;;;9.82;8.80;;;21.30;87.40;;;;;;5073528;28;20582;-61
2021/06/07 05:23:38;;;;;;;10.63;9.02;;;21.40;86.20;;;;;;5062505;28;20040;-61
2021/06/07 05:26:04;;;;;;;11.50;9.18;;;21.40;84.70;;;;;;5082769;28;20044;-61
2021/06/07 05:28:30;;;;;;;10.15;9.25;;;21.50;84.50;;;;;;5071569;28;20048;-61
2021/06/07 05:30:56;;;;;;;10.00;8.63;;;21.40;85.30;;;;;;5061538;28;20033;-60
2021/06/07 05:33:23;;;;;;;11.38;9.70;;;21.40;84.10;;;;;;5054825;28;20041;-61
2021/06/07 05:35:50;;;;;;;10.20;9.10;;;21.50;83.00;;;;;;5017706;28;20481;-60
2021/06/07 05:38:18;;;;;;;9.45;8.45;;;21.50;84.60;;;;;;5048851;28;20052;-61
2021/06/07 05:40:45;;;;;;;8.10;7.07;;;21.60;83.70;;;;;;5059419;28;20088;-61
2021/06/07 05:43:11;;;;;;;7.57;6.85;;;21.60;81.90;;;;;;5069857;28;20043;-61
2021/06/07 05:45:36;;;;;;;7.03;5.90;;;21.70;82.20;;;;;;5072084;28;20036;-61
2021/06/07 05:48:04;;;;;;;6.78;6.18;;;21.70;81.10;;;;;;5051587;28;20047;-61
2021/06/07 05:50:33;;;;;;;7.82;7.03;;;21.70;80.90;;;;;;5067936;28;20032;-60
2021/06/07 05:52:59;;;;;;;7.65;6.90;;;21.80;81.30;;;;;;5061224;28;20053;-61
2021/06/07 05:55:31;;;;;;;6.80;6.20;;;21.80;80.00;;;;;;5061508;28;20485;-61
2021/06/07 05:58:00;;;;;;;6.85;6.10;;;21.80;78.80;;;;;;5069475;28;20161;-61
2021/06/07 06:00:31;;;;;;;7.22;6.10;;;21.80;77.70;;;;;;5060951;28;20516;-61
2021/06/07 06:02:57;;;;;;;8.20;5.90;;;21.80;76.10;;;;;;5061044;28;20059;-60
2021/06/07 06:05:23;;;;;;;6.63;6.03;;;21.90;77.40;;;;;;5057112;28;20599;-61
2021/06/07 06:07:49;;;;;;;8.65;6.00;;;22.00;78.00;;;;;;5063750;28;20131;-61
2021/06/07 06:10:16;;;;;;;6.47;5.25;;;22.00;77.00;;;;;;5057757;28;20087;-61
2021/06/07 06:12:42;;;;;;;6.82;5.57;;;22.00;74.50;;;;;;5061970;28;20392;-60
2021/06/07 06:15:11;;;;;;;5.30;4.88;;;22.00;76.60;;;;;;5060717;28;20067;-60
2021/06/07 06:17:37;;;;;;;6.45;5.85;;;22.00;76.00;;;;;;5066991;28;20068;-60
2021/06/07 06:20:05;;;;;;;5.20;4.80;;;22.00;75.10;;;;;;5057869;28;20128;-61
2021/06/07 06:22:31;;;;;;;6.55;4.78;;;22.00;75.10;;;;;;5072788;28;20047;-60
2021/06/07 06:24:57;;;;;;;5.00;4.50;;;22.00;75.00;;;;;;5047143;28;20042;-59
2021/06/07 06:27:22;;;;;;;7.18;4.68;;;22.10;73.80;;;;;;5060245;28;20028;-61
2021/06/07 06:29:48;;;;;;;5.38;4.57;;;22.10;73.90;;;;;;5062225;28;20040;-61
2021/06/07 06:32:14;;;;;;;5.93;4.80;;;22.20;74.30;;;;;;5071594;28;20036;-61
2021/06/07 06:34:41;;;;;;;6.50;4.60;;;22.20;74.00;;;;;;5050037;28;20051;-61
2021/06/07 06:37:10;;;;;;;5.45;4.05;;;22.20;73.50;;;;;;5055907;28;20060;-61
2021/06/07 06:39:36;;;;;;;4.57;3.85;;;22.20;72.90;;;;;;5062384;28;20106;-60
2021/06/07 06:42:03;;;;;;;6.28;3.80;;;22.10;70.80;;;;;;5058975;28;20478;-61
2021/06/07 06:44:29;;;;;;;5.13;3.30;;;22.30;72.80;;;;;;5061756;28;20032;-61
2021/06/07 06:46:55;;;;;;;4.43;3.22;;;22.30;71.00;;;;;;5053562;28;20142;-60
2021/06/07 06:49:20;;;;;;;4.10;3.70;;;22.40;70.20;;;;;;5064172;28;20910;-60
2021/06/07 06:51:46;;;;;;;3.95;3.35;;;22.50;69.90;;;;;;5043536;28;20043;-60
2021/06/07 06:54:12;;;;;;;4.25;3.50;;;22.50;65.90;;;;;;5066057;28;20032;-61
2021/06/07 06:56:37;;;;;;;7.63;3.90;;;22.50;68.60;;;;;;5066178;28;20119;-61
2021/06/07 06:59:04;;;;;;;5.22;3.60;;;22.50;67.70;;;;;;5077198;28;20523;-61
2021/06/07 07:01:30;;;;;;;4.43;3.63;;;22.70;68.20;;;;;;5072026;28;20139;-61
2021/06/07 07:03:55;;;;;;;5.35;3.80;;;22.80;67.80;;;;;;5072016;28;20494;-61
2021/06/07 07:06:25;;;;;;;4.32;4.03;;;22.80;66.80;;;;;;5064227;28;20093;-60
2021/06/07 07:08:51;;;;;;;5.30;4.10;;;22.90;65.90;;;;;;5055670;28;20036;-60
2021/06/07 07:11:17;;;;;;;5.45;4.30;;;22.80;66.90;;;;;;5068457;28;20133;-60
2021/06/07 07:13:43;;;;;;;4.18;3.60;;;22.80;66.10;;;;;;5068622;28;20048;-60
2021/06/07 07:16:08;;;;;;;4.32;3.60;;;22.90;65.60;;;;;;5057890;28;20044;-60
2021/06/07 07:18:34;;;;;;;4.72;3.35;;;22.90;65.50;;;;;;5057501;28;20071;-60
2021/06/07 07:21:00;;;;;;;3.15;2.47;;;23.10;64.60;;;;;;5059467;28;20075;-60
2021/06/07 07:23:26;;;;;;;3.85;3.45;;;23.10;61.30;;;;;;5073344;28;20202;-61
2021/06/07 07:25:51;;;;;;;5.78;4.03;;;23.10;63.40;;;;;;5061004;28;20047;-60
2021/06/07 07:28:17;;;;;;;5.10;4.15;;;23.10;62.50;;;;;;5055204;28;20032;-60
2021/06/07 07:30:45;;;;;;;7.72;4.10;;;23.10;63.90;;;;;;5062816;28;20483;-60
2021/06/07 07:33:11;;;;;;;5.22;4.60;;;23.20;63.10;;;;;;5076880;28;20036;-60
2021/06/07 07:35:38;;;;;;;5.63;3.92;;;23.20;63.20;;;;;;5081608;28;20040;-60
2021/06/07 07:38:03;;;;;;;4.50;2.78;;;23.30;63.10;;;;;;5078301;28;20050;-59
2021/06/07 07:40:30;;;;;;;4.88;4.07;;;23.40;60.90;;;;;;5076769;28;20039;-59
2021/06/07 07:42:57;;;;;;;4.70;4.28;;;23.20;60.50;;;;;;5081835;28;20081;-58
2021/06/07 07:45:26;;;;;;;5.05;4.55;;;23.50;61.00;;;;;;5058657;28;20115;-56
2021/06/07 07:47:56;;;;;;;5.15;3.78;;;23.60;61.20;;;;;;5065645;28;20044;-60
2021/06/07 07:50:22;;;;;;;4.85;3.50;;;23.70;61.10;;;;;;5063281;28;20039;-60
2021/06/07 07:52:49;;;;;;;6.90;4.10;;;23.80;60.30;;;;;;5056193;28;20486;-60
2021/06/07 07:55:18;;;;;;;3.60;3.30;;;23.80;59.70;;;;;;5053725;28;20040;-60
2021/06/07 07:57:44;;;;;;;6.57;4.00;;;23.70;60.10;;;;;;5075564;28;20044;-60
2021/06/07 08:00:13;;;;;;;4.43;3.33;;;23.70;58.80;;;;;;5058653;28;20412;-60
2021/06/07 08:02:39;;;;;;;5.75;4.30;;;23.80;59.80;;;;;;5074506;28;20052;-60
2021/06/07 08:05:07;;;;;;;4.90;4.22;;;23.90;59.90;;;;;;5059661;28;20423;-60
2021/06/07 08:07:33;;;;;;;4.43;4.03;;;23.80;58.50;;;;;;5065349;28;20512;-60
2021/06/07 08:10:00;;;;;;;7.28;4.68;;;23.80;59.80;;;;;;5058289;28;20039;-60
2021/06/07 08:12:27;;;;;;;5.50;4.55;;;23.90;59.00;;;;;;5067393;28;20044;-60
2021/06/07 08:14:52;;;;;;;4.50;3.97;;;24.00;59.10;;;;;;5058726;28;20945;-60
2021/06/07 08:17:18;;;;;;;5.25;4.05;;;24.20;59.20;;;;;;5079082;28;20044;-60
2021/06/07 08:19:44;;;;;;;6.30;4.70;;;24.20;58.90;;;;;;5075451;28;20048;-60
2021/06/07 08:22:10;;;;;;;5.25;4.85;;;24.20;58.90;;;;;;5074881;28;20097;-60
2021/06/07 08:24:37;;;;;;;4.60;4.18;;;24.20;59.50;;;;;;5038669;28;20508;-60
2021/06/07 08:27:04;;;;;;;7.03;5.05;;;24.20;59.20;;;;;;5054235;28;20048;-59
2021/06/07 08:29:30;;;;;;;5.72;4.40;;;24.20;58.70;;;;;;5060338;28;20042;-59
2021/06/07 08:31:56;;;;;;;6.35;4.57;;;24.20;58.20;;;;;;5062897;28;20033;-60
2021/06/07 08:34:22;;;;;;;5.85;4.28;;;24.20;58.00;;;;;;5067299;28;20044;-60
2021/06/07 08:36:48;;;;;;;5.80;4.88;;;24.00;58.10;;;;;;5074869;28;20047;-60
2021/06/07 08:39:14;;;;;;;5.93;4.68;;;24.00;58.20;;;;;;5060981;28;20049;-60
2021/06/07 08:41:42;;;;;;;6.32;5.22;;;23.90;58.80;;;;;;5062905;28;20514;-60
2021/06/07 08:44:07;;;;;;;6.55;5.53;;;24.00;58.30;;;;;;5067475;28;20047;-60
2021/06/07 08:46:33;;;;;;;6.28;5.68;;;23.90;58.10;;;;;;5072816;28;20387;-60
2021/06/07 08:48:59;;;;;;;7.90;5.95;;;23.80;58.70;;;;;;5066324;28;20039;-59
2021/06/07 08:51:25;;;;;;;7.15;6.45;;;23.90;59.20;;;;;;5069840;28;20671;-59
2021/06/07 08:53:51;;;;;;;6.57;5.97;;;23.90;59.00;;;;;;5062713;28;20062;-60
2021/06/07 08:56:17;;;;;;;5.97;5.38;;;23.90;58.60;;;;;;5058564;28;20040;-60
2021/06/07 08:58:47;;;;;;;7.63;6.13;;;23.90;58.90;;;;;;5065420;28;20043;-60
2021/06/07 09:01:12;;;;;;;6.05;5.55;;;24.10;59.40;;;;;;5058764;28;20048;-60
2021/06/07 09:03:38;;;;;;;7.85;5.63;;;24.10;59.70;;;;;;5070495;28;20052;-60
2021/06/07 09:06:04;;;;;;;6.45;5.57;;;24.10;59.20;;;;;;5061309;28;20037;-60
2021/06/07 09:08:36;;;;;;;7.80;6.00;;;24.10;58.60;;;;;;5055125;28;20043;-60
2021/06/07 09:11:11;;;;;;;6.63;4.90;;;24.20;58.20;;;;;;5071603;28;20111;-61
2021/06/07 09:13:38;;;;;;;11.48;6.13;;;24.20;58.40;;;;;;5077091;28;20097;-61
2021/06/07 09:16:05;;;;;;;9.60;6.53;;;24.10;58.80;;;;;;5080251;28;20036;-60
2021/06/07 09:18:35;;;;;;;7.47;6.68;;;24.00;58.40;;;;;;5077952;28;20048;-60
2021/06/07 09:21:06;;;;;;;8.43;7.28;;;24.00;58.10;;;;;;5069759;28;20494;-59
2021/06/07 09:24:04;;;;;;;8.10;6.53;;;24.30;58.10;;;;;;5055853;28;20044;-60
2021/06/07 09:26:38;;;;;;;6.63;5.90;;;24.40;59.30;;;;;;5048654;28;20053;-60
2021/06/07 09:29:10;;;;;;;7.70;6.80;;;24.50;57.70;;;;;;5047829;28;20172;-61
2021/06/07 09:31:38;;;;;;;10.48;7.68;;;24.60;58.90;;;;;;5055685;28;20045;-60
2021/06/07 09:34:08;;;;;;;7.13;6.50;;;24.50;57.50;;;;;;5058244;28;20542;-60
2021/06/07 09:36:42;;;;;;;7.80;6.82;;;24.60;57.80;;;;;;5052079;28;20041;-60
2021/06/07 09:39:17;;;;;;;7.47;6.50;;;24.70;57.20;;;;;;5045791;28;20058;-61
2021/06/07 09:41:50;;;;;;;8.38;7.53;;;24.60;57.00;;;;;;5059811;28;20053;-61
2021/06/07 09:44:43;;;;;;;8.83;7.93;;;24.40;58.40;;;;;;5047052;28;20075;-61
2021/06/07 09:47:35;;;;;;;10.65;7.60;;;24.40;58.80;;;;;;5012680;28;20037;-60
2021/06/07 09:50:09;;;;;;;8.75;7.85;;;24.40;58.40;;;;;;5043348;28;20051;-60
2021/06/07 09:52:52;;;;;;;7.75;7.00;;;24.20;57.20;;;;;;5051699;28;20041;-60
2021/06/07 09:55:21;;;;;;;8.50;7.63;;;24.50;58.50;;;;;;5042057;28;20064;-60
2021/06/07 09:57:50;;;;;;;9.98;8.70;;;24.40;58.50;;;;;;5058490;28;20056;-60
2021/06/07 10:00:50;;;;;;;10.18;9.05;;;24.50;57.60;;;;;;5044565;28;20099;-60
2021/06/07 10:03:18;;;;;;;8.32;7.45;;;24.50;57.60;;;;;;4973743;28;20069;-61
2021/06/07 10:05:45;;;;;;;9.13;8.23;;;24.40;58.80;;;;;;5043199;28;20033;-61
2021/06/07 10:08:10;;;;;;;10.10;9.10;;;24.40;58.20;;;;;;5042834;28;20128;-62
2021/06/07 10:10:36;;;;;;;12.55;9.15;;;24.30;58.40;;;;;;5049596;28;20036;-62
2021/06/07 10:13:06;;;;;;;11.50;10.40;;;24.30;59.10;;;;;;5044040;28;20045;-62
2021/06/07 10:15:36;;;;;;;12.00;11.00;;;24.30;59.30;;;;;;5050042;28;20051;-61
2021/06/07 10:18:05;;;;;;;10.65;9.55;;;24.30;58.40;;;;;;5034558;28;20040;-60
2021/06/07 10:22:59;;;;;;;11.85;9.05;;;24.40;58.10;;;;;;5072373;27;20036;-65
2021/06/07 10:25:25;;;;;;;11.52;10.10;;;24.50;58.80;;;;;;5067518;28;20064;-61
2021/06/07 10:27:51;;;;;;;12.88;9.00;;;24.40;58.40;;;;;;5067774;28;20128;-61
2021/06/07 10:30:25;;;;;;;10.60;9.63;;;24.70;58.60;;;;;;5069969;28;20485;-63
2021/06/07 10:32:53;;;;;;;11.80;10.68;;;24.60;59.40;;;;;;5069557;28;20060;-62
2021/06/07 10:35:37;;;;;;;12.48;11.38;;;24.70;58.20;;;;;;5061548;28;20037;-62
2021/06/07 10:38:09;;;;;;;11.60;10.50;;;24.70;58.20;;;;;;5032423;28;20047;-63
2021/06/07 10:40:41;;;;;;;12.43;10.93;;;24.70;58.20;;;;;;5072852;28;20043;-63
2021/06/07 10:43:14;;;;;;;28.55;17.40;;;24.60;58.00;;;;;;5066505;28;20032;-63
2021/06/07 10:45:42;;;;;;;13.32;11.93;;;24.70;58.40;;;;;;5070553;28;20141;-62
2021/06/07 10:48:11;;;;;;;12.55;10.88;;;24.90;57.10;;;;;;5079241;28;20044;-63
2021/06/07 10:50:43;;;;;;;12.77;9.00;;;25.00;56.60;;;;;;5075632;28;20127;-63
2021/06/07 10:53:24;;;;;;;12.32;10.98;;;24.90;56.10;;;;;;5069395;28;20477;-62
2021/06/07 10:56:08;;;;;;;11.55;10.52;;;25.00;56.10;;;;;;5090735;28;20489;-63
2021/06/07 10:58:34;;;;;;;11.88;10.52;;;25.10;56.80;;;;;;5050527;28;20078;-63
2021/06/07 11:01:01;;;;;;;13.38;12.10;;;25.20;57.40;;;;;;5059119;28;20053;-63
2021/06/07 11:03:32;;;;;;;11.57;10.38;;;25.00;56.30;;;;;;5079834;28;20394;-63
2021/06/07 11:06:00;;;;;;;13.00;11.30;;;25.00;56.70;;;;;;5064801;28;20037;-63
2021/06/07 11:08:30;;;;;;;10.70;9.30;;;24.80;57.40;;;;;;5078566;28;20477;-63
2021/06/07 11:11:05;;;;;;;13.43;12.02;;;25.00;57.40;;;;;;5075046;28;20472;-63
2021/06/07 11:13:50;;;;;;;12.32;10.82;;;24.90;56.20;;;;;;5075385;28;20060;-62
2021/06/07 11:16:29;;;;;;;10.23;9.20;;;24.80;56.50;;;;;;5067730;28;20131;-62
2021/06/07 11:19:03;;;;;;;10.93;9.82;;;24.80;57.20;;;;;;5067639;28;20040;-62
2021/06/07 11:21:47;;;;;;;11.65;10.50;;;25.00;56.30;;;;;;5071063;28;20119;-61
2021/06/07 11:24:37;;;;;;;10.70;9.57;;;25.40;54.40;;;;;;5076618;28;20058;-63
2021/06/07 11:27:06;;;;;;;10.40;8.80;;;26.50;51.40;;;;;;5052787;28;20059;-63
2021/06/07 11:29:33;;;;;;;8.90;8.00;;;26.70;51.10;;;;;;5064060;28;20045;-63
2021/06/07 11:32:16;;;;;;;8.77;7.90;;;26.40;51.60;;;;;;5077903;28;20039;-63
2021/06/07 11:34:50;;;;;;;6.78;6.07;;;26.00;50.90;;;;;;5070380;28;20148;-63
2021/06/07 11:37:37;;;;;;;14.48;9.77;;;25.60;52.60;;;;;;5067842;28;20044;-63
2021/06/07 11:40:08;;;;;;;14.05;12.65;;;25.50;55.00;;;;;;5067187;28;20448;-63
2021/06/07 11:42:56;;;;;;;14.52;13.32;;;24.70;56.80;;;;;;5076051;28;20083;-63
2021/06/07 11:45:39;;;;;;;9.55;8.70;;;24.20;58.90;;;;;;5073791;28;20032;-63
2021/06/07 11:48:05;;;;;;;11.57;8.98;;;23.70;58.40;;;;;;5045495;28;20048;-63
2021/06/07 11:50:33;;;;;;;8.38;7.20;;;23.40;60.70;;;;;;5081910;28;20029;-63
2021/06/07 11:53:17;;;;;;;5.80;5.22;;;23.30;62.00;;;;;;5073684;28;20048;-62
2021/06/07 11:55:45;;;;;;;13.50;8.05;;;23.10;62.70;;;;;;5073733;28;20032;-63
2021/06/07 11:58:23;;;;;;;6.32;4.53;;;22.80;68.50;;;;;;5065177;28;20122;-62
2021/06/07 12:00:52;;;;;;;6.47;3.20;;;22.10;68.40;;;;;;5079822;28;20048;-62
2021/06/07 12:03:23;;;;;;;5.45;3.17;;;21.40;69.00;;;;;;5075085;28;20052;-64
2021/06/07 12:05:49;;;;;;;6.07;3.33;;;20.50;78.80;;;;;;5080703;28;21764;-64
2021/06/07 12:08:17;;;;;;;9.10;5.35;;;20.50;85.00;;;;;;5078917;28;20040;-64
2021/06/07 12:10:49;;;;;;;6.47;4.38;;;20.40;99.90;;;;;;5079091;28;20071;-64
2021/06/07 12:13:22;;;;;;;4.60;3.95;;;19.40;99.90;;;;;;5074109;28;20116;-64
2021/06/07 12:15:54;;;;;;;5.68;4.15;;;19.30;99.90;;;;;;5059473;28;27244;-63
2021/06/07 12:18:36;;;;;;;11.68;5.60;;;19.40;99.90;;;;;;5078170;28;20654;-65
2021/06/07 12:21:03;;;;;;;16.20;6.30;;;19.40;99.90;;;;;;5079721;28;20060;-65
2021/06/07 12:23:37;;;;;;;13.63;7.50;;;19.30;99.90;;;;;;5079885;28;20035;-62
2021/06/07 12:29:28;;;;;;;14.13;8.32;;;19.10;99.90;;;;;;5055642;28;20079;-64
2021/06/07 12:32:09;;;;;;;9.73;8.60;;;19.20;99.90;;;;;;5078712;28;20490;-66
2021/06/07 12:34:37;;;;;;;10.27;8.77;;;19.30;99.90;;;;;;5030623;28;20040;-64
2021/06/07 12:37:03;;;;;;;12.60;10.63;;;19.30;99.90;;;;;;5078776;28;20075;-65
2021/06/07 12:39:30;;;;;;;12.27;10.18;;;19.30;99.90;;;;;;5074021;28;20048;-66
2021/06/07 12:41:56;;;;;;;11.60;9.50;;;19.30;99.90;;;;;;5075996;28;20097;-66
2021/06/07 12:44:26;;;;;;;11.80;9.77;;;19.30;99.90;;;;;;5081100;28;20044;-66
2021/06/07 12:46:55;;;;;;;12.93;11.52;;;19.40;99.90;;;;;;5072066;28;20048;-65
2021/06/07 12:49:26;;;;;;;16.23;11.82;;;19.50;99.90;;;;;;5074823;28;20042;-66